sensor_id;sensor_type;location;lat;lon;timestamp;pressure;altitude;pressure_sealevel;temperature;humidity
28312;BME280;15572;48.810;9.148;2023-03-14T00:03:15;96507.88;;;9.62;100.00
28312;BME280;15572;48.810;9.148;2023-03-14T00:08:12;96504.59;;;9.60;100.00
28312;BME280;15572;48.810;9.148;2023-03-14T00:13:09;96500.38;;;9.64;100.00
28312;BME280;15572;48.810;9.148;2023-03-14T00:18:05;96490.06;;;9.61;100.00
28312;BME280;15572;48.810;9.148;2023-03-14T00:23:03;96484.03;;;9.59;100.00
28312;BME280;15572;48.810;9.148;2023-03-14T00:28:00;96465.13;;;9.59;100.00
28312;BME280;15572;48.810;9.148;2023-03-14T00:32:56;96481.34;;;9.59;100.00
28312;BME280;15572;48.810;9.148;2023-03-14T00:37:53;96486.38;;;9.55;100.00
28312;BME280;15572;48.810;9.148;2023-03-14T00:42:51;96481.94;;;9.61;100.00
28312;BME280;15572;48.810;9.148;2023-03-14T00:47:47;96484.66;;;9.61;100.00
28312;BME280;15572;48.810;9.148;2023-03-14T00:52:44;96479.13;;;9.56;100.00
28312;BME280;15572;48.810;9.148;2023-03-14T00:57:41;96492.06;;;9.65;100.00
28312;BME280;15572;48.810;9.148;2023-03-14T01:02:39;96490.66;;;9.75;100.00
28312;BME280;15572;48.810;9.148;2023-03-14T01:07:36;96501.59;;;9.80;100.00
28312;BME280;15572;48.810;9.148;2023-03-14T01:12:33;96516.16;;;9.79;100.00
28312;BME280;15572;48.810;9.148;2023-03-14T01:17:30;96520.19;;;9.88;100.00
28312;BME280;15572;48.810;9.148;2023-03-14T01:22:28;96502.16;;;9.70;100.00
28312;BME280;15572;48.810;9.148;2023-03-14T01:27:24;96483.56;;;9.62;100.00
28312;BME280;15572;48.810;9.148;2023-03-14T01:32:21;96465.25;;;9.64;100.00
28312;BME280;15572;48.810;9.148;2023-03-14T01:37:19;96454.56;;;9.69;100.00
28312;BME280;15572;48.810;9.148;2023-03-14T01:42:17;96429.22;;;9.70;100.00
28312;BME280;15572;48.810;9.148;2023-03-14T01:47:14;96415.94;;;9.68;100.00
28312;BME280;15572;48.810;9.148;2023-03-14T01:52:12;96404.53;;;9.66;100.00
28312;BME280;15572;48.810;9.148;2023-03-14T01:57:12;96425.91;;;9.68;100.00
28312;BME280;15572;48.810;9.148;2023-03-14T02:02:12;96412.16;;;9.69;100.00
28312;BME280;15572;48.810;9.148;2023-03-14T02:07:12;96422.63;;;9.89;100.00
28312;BME280;15572;48.810;9.148;2023-03-14T02:12:14;96420.28;;;9.81;100.00
28312;BME280;15572;48.810;9.148;2023-03-14T02:17:15;96401.38;;;9.81;100.00
28312;BME280;15572;48.810;9.148;2023-03-14T02:22:15;96408.66;;;9.81;100.00
28312;BME280;15572;48.810;9.148;2023-03-14T02:27:15;96389.84;;;9.74;100.00
28312;BME280;15572;48.810;9.148;2023-03-14T02:32:12;96366.94;;;9.65;100.00
28312;BME280;15572;48.810;9.148;2023-03-14T02:37:10;96366.94;;;9.65;100.00
28312;BME280;15572;48.810;9.148;2023-03-14T02:42:07;96360.81;;;9.58;100.00
28312;BME280;15572;48.810;9.148;2023-03-14T02:47:05;96365.91;;;9.66;100.00
28312;BME280;15572;48.810;9.148;2023-03-14T02:52:02;96347.56;;;9.68;100.00
28312;BME280;15572;48.810;9.148;2023-03-14T02:56:58;96324.78;;;9.64;100.00
28312;BME280;15572;48.810;9.148;2023-03-14T03:01:55;96321.13;;;9.70;100.00
28312;BME280;15572;48.810;9.148;2023-03-14T03:06:52;96310.44;;;9.75;100.00
28312;BME280;15572;48.810;9.148;2023-03-14T03:11:49;96311.16;;;9.70;100.00
28312;BME280;15572;48.810;9.148;2023-03-14T03:16:45;96297.16;;;9.62;100.00
28312;BME280;15572;48.810;9.148;2023-03-14T03:21:42;96275.44;;;9.57;100.00
28312;BME280;15572;48.810;9.148;2023-03-14T03:26:40;96288.94;;;9.68;100.00
28312;BME280;15572;48.810;9.148;2023-03-14T03:31:36;96284.75;;;9.61;100.00
28312;BME280;15572;48.810;9.148;2023-03-14T03:36:33;96283.53;;;9.57;100.00
28312;BME280;15572;48.810;9.148;2023-03-14T03:41:30;96271.34;;;9.66;100.00
28312;BME280;15572;48.810;9.148;2023-03-14T03:46:28;96262.53;;;9.59;100.00
28312;BME280;15572;48.810;9.148;2023-03-14T03:51:25;96262.41;;;9.65;100.00
28312;BME280;15572;48.810;9.148;2023-03-14T03:56:22;96264.06;;;9.55;100.00
28312;BME280;15572;48.810;9.148;2023-03-14T04:01:18;96264.41;;;9.58;100.00
28312;BME280;15572;48.810;9.148;2023-03-14T04:06:16;96261.25;;;9.50;100.00
28312;BME280;15572;48.810;9.148;2023-03-14T04:11:13;96260.31;;;9.56;100.00
28312;BME280;15572;48.810;9.148;2023-03-14T04:16:14;96256.19;;;9.42;100.00
28312;BME280;15572;48.810;9.148;2023-03-14T04:21:11;96250.69;;;9.37;100.00
28312;BME280;15572;48.810;9.148;2023-03-14T04:26:09;96253.25;;;9.32;100.00
28312;BME280;15572;48.810;9.148;2023-03-14T04:31:09;96261.13;;;9.33;100.00
28312;BME280;15572;48.810;9.148;2023-03-14T04:36:07;96244.00;;;9.27;100.00
28312;BME280;15572;48.810;9.148;2023-03-14T04:41:05;96247.25;;;9.29;100.00
28312;BME280;15572;48.810;9.148;2023-03-14T04:46:03;96232.84;;;9.24;100.00
28312;BME280;15572;48.810;9.148;2023-03-14T04:50:59;96230.38;;;9.34;100.00
28312;BME280;15572;48.810;9.148;2023-03-14T04:55:56;96215.34;;;9.26;100.00
28312;BME280;15572;48.810;9.148;2023-03-14T05:00:52;96220.03;;;9.31;100.00
28312;BME280;15572;48.810;9.148;2023-03-14T05:05:50;96216.41;;;9.25;100.00
28312;BME280;15572;48.810;9.148;2023-03-14T05:10:51;96199.75;;;9.17;100.00
28312;BME280;15572;48.810;9.148;2023-03-14T05:15:48;96193.31;;;9.18;100.00
28312;BME280;15572;48.810;9.148;2023-03-14T05:20:45;96211.00;;;9.14;100.00
28312;BME280;15572;48.810;9.148;2023-03-14T05:25:44;96191.88;;;9.27;100.00
28312;BME280;15572;48.810;9.148;2023-03-14T05:30:40;96203.50;;;9.27;100.00
28312;BME280;15572;48.810;9.148;2023-03-14T05:35:37;96186.47;;;9.15;100.00
28312;BME280;15572;48.810;9.148;2023-03-14T05:40:34;96183.56;;;9.17;100.00
28312;BME280;15572;48.810;9.148;2023-03-14T05:45:32;96182.97;;;9.15;100.00
28312;BME280;15572;48.810;9.148;2023-03-14T05:50:28;96187.06;;;9.17;100.00
28312;BME280;15572;48.810;9.148;2023-03-14T05:55:25;96192.81;;;9.21;100.00
28312;BME280;15572;48.810;9.148;2023-03-14T06:00:22;96192.59;;;9.22;100.00
28312;BME280;15572;48.810;9.148;2023-03-14T06:05:20;96193.97;;;9.25;100.00
28312;BME280;15572;48.810;9.148;2023-03-14T06:10:16;96183.88;;;9.32;100.00
28312;BME280;15572;48.810;9.148;2023-03-14T06:15:13;96193.16;;;9.24;100.00
28312;BME280;15572;48.810;9.148;2023-03-14T06:20:10;96192.34;;;9.24;100.00
28312;BME280;15572;48.810;9.148;2023-03-14T06:25:09;96185.53;;;9.21;100.00
28312;BME280;15572;48.810;9.148;2023-03-14T06:30:07;96191.31;;;9.13;100.00
28312;BME280;15572;48.810;9.148;2023-03-14T06:35:04;96196.56;;;9.20;100.00
28312;BME280;15572;48.810;9.148;2023-03-14T06:40:01;96192.59;;;9.22;100.00
28312;BME280;15572;48.810;9.148;2023-03-14T06:44:59;96181.69;;;9.17;100.00
28312;BME280;15572;48.810;9.148;2023-03-14T06:49:55;96182.84;;;9.21;100.00
28312;BME280;15572;48.810;9.148;2023-03-14T06:54:52;96182.47;;;9.29;100.00
28312;BME280;15572;48.810;9.148;2023-03-14T06:59:48;96184.69;;;9.44;100.00
28312;BME280;15572;48.810;9.148;2023-03-14T07:04:46;96186.19;;;9.63;100.00
28312;BME280;15572;48.810;9.148;2023-03-14T07:09:42;96189.91;;;9.74;100.00
28312;BME280;15572;48.810;9.148;2023-03-14T07:14:39;96192.59;;;9.86;100.00
28312;BME280;15572;48.810;9.148;2023-03-14T07:19:35;96204.50;;;10.01;100.00
28312;BME280;15572;48.810;9.148;2023-03-14T07:24:34;96204.84;;;10.17;98.29
28312;BME280;15572;48.810;9.148;2023-03-14T07:29:30;96202.59;;;10.42;94.86
28312;BME280;15572;48.810;9.148;2023-03-14T07:34:27;96206.66;;;10.56;94.20
28312;BME280;15572;48.810;9.148;2023-03-14T07:39:23;96205.69;;;10.79;91.55
28312;BME280;15572;48.810;9.148;2023-03-14T07:44:21;96209.94;;;11.08;87.42
28312;BME280;15572;48.810;9.148;2023-03-14T07:49:18;96210.19;;;11.07;86.38
28312;BME280;15572;48.810;9.148;2023-03-14T07:54:14;96204.44;;;11.20;87.38
28312;BME280;15572;48.810;9.148;2023-03-14T07:59:11;96206.25;;;11.31;84.12
28312;BME280;15572;48.810;9.148;2023-03-14T08:04:09;96208.44;;;11.34;84.73
28312;BME280;15572;48.810;9.148;2023-03-14T08:09:06;96190.28;;;11.51;85.13
28312;BME280;15572;48.810;9.148;2023-03-14T08:14:02;96195.66;;;11.68;82.04
28312;BME280;15572;48.810;9.148;2023-03-14T08:18:59;96186.66;;;11.84;80.10
28312;BME280;15572;48.810;9.148;2023-03-14T08:23:56;96176.25;;;11.98;79.05
28312;BME280;15572;48.810;9.148;2023-03-14T08:28:53;96179.81;;;12.25;75.39
28312;BME280;15572;48.810;9.148;2023-03-14T08:33:49;96177.00;;;12.15;73.04
28312;BME280;15572;48.810;9.148;2023-03-14T08:38:47;96177.53;;;12.12;72.94
28312;BME280;15572;48.810;9.148;2023-03-14T08:43:45;96172.97;;;12.17;74.38
28312;BME280;15572;48.810;9.148;2023-03-14T08:48:41;96191.00;;;12.29;74.42
28312;BME280;15572;48.810;9.148;2023-03-14T08:53:38;96190.88;;;12.45;71.22
28312;BME280;15572;48.810;9.148;2023-03-14T08:58:34;96205.25;;;12.73;70.45
28312;BME280;15572;48.810;9.148;2023-03-14T09:03:34;96208.97;;;12.93;69.53
28312;BME280;15572;48.810;9.148;2023-03-14T09:08:31;96216.91;;;13.00;68.62
28312;BME280;15572;48.810;9.148;2023-03-14T09:13:27;96230.50;;;12.73;70.79
28312;BME280;15572;48.810;9.148;2023-03-14T09:18:24;96251.81;;;12.59;73.41
28312;BME280;15572;48.810;9.148;2023-03-14T09:23:22;96257.41;;;12.75;75.71
28312;BME280;15572;48.810;9.148;2023-03-14T09:28:18;96264.88;;;12.62;76.12
28312;BME280;15572;48.810;9.148;2023-03-14T09:33:15;96259.34;;;12.52;76.92
28312;BME280;15572;48.810;9.148;2023-03-14T09:38:11;96280.94;;;12.42;78.89
28312;BME280;15572;48.810;9.148;2023-03-14T09:43:11;96271.44;;;12.45;77.54
28312;BME280;15572;48.810;9.148;2023-03-14T09:48:14;96283.47;;;12.49;76.95
28312;BME280;15572;48.810;9.148;2023-03-14T09:53:14;96278.16;;;12.59;78.11
28312;BME280;15572;48.810;9.148;2023-03-14T09:58:20;96274.84;;;12.57;77.37
28312;BME280;15572;48.810;9.148;2023-03-14T10:03:22;96262.88;;;12.53;77.10
28312;BME280;15572;48.810;9.148;2023-03-14T10:08:20;96247.56;;;12.42;75.44
28312;BME280;15572;48.810;9.148;2023-03-14T10:13:20;96249.00;;;12.49;77.28
28312;BME280;15572;48.810;9.148;2023-03-14T10:18:17;96243.19;;;12.41;73.95
28312;BME280;15572;48.810;9.148;2023-03-14T10:23:24;96240.81;;;12.71;72.70
28312;BME280;15572;48.810;9.148;2023-03-14T10:28:26;96234.91;;;13.11;69.05
28312;BME280;15572;48.810;9.148;2023-03-14T10:33:24;96236.28;;;13.08;69.34
28312;BME280;15572;48.810;9.148;2023-03-14T10:38:24;96227.84;;;13.10;70.58
28312;BME280;15572;48.810;9.148;2023-03-14T10:43:25;96244.75;;;13.12;70.26
28312;BME280;15572;48.810;9.148;2023-03-14T10:48:24;96240.38;;;12.84;69.53
28312;BME280;15572;48.810;9.148;2023-03-14T10:53:25;96242.78;;;13.07;69.68
28312;BME280;15572;48.810;9.148;2023-03-14T10:58:26;96255.66;;;12.90;70.88
28312;BME280;15572;48.810;9.148;2023-03-14T11:03:24;96258.22;;;12.75;71.75
28312;BME280;15572;48.810;9.148;2023-03-14T11:08:26;96270.25;;;12.57;74.81
28312;BME280;15572;48.810;9.148;2023-03-14T11:13:33;96275.81;;;12.46;76.76
28312;BME280;15572;48.810;9.148;2023-03-14T11:18:51;96275.59;;;12.26;80.39
28312;BME280;15572;48.810;9.148;2023-03-14T11:24:02;96282.00;;;11.09;99.59
28312;BME280;15572;48.810;9.148;2023-03-14T11:29:12;96293.78;;;10.58;100.00
28312;BME280;15572;48.810;9.148;2023-03-14T11:34:15;96299.44;;;10.28;100.00
28312;BME280;15572;48.810;9.148;2023-03-14T11:39:15;96304.13;;;10.33;100.00
28312;BME280;15572;48.810;9.148;2023-03-14T11:44:17;96313.50;;;10.42;100.00
28312;BME280;15572;48.810;9.148;2023-03-14T11:49:25;96318.78;;;10.48;100.00
28312;BME280;15572;48.810;9.148;2023-03-14T11:54:31;96323.16;;;10.38;100.00
28312;BME280;15572;48.810;9.148;2023-03-14T11:59:34;96324.38;;;10.07;100.00
28312;BME280;15572;48.810;9.148;2023-03-14T12:04:47;96338.53;;;10.49;100.00
28312;BME280;15572;48.810;9.148;2023-03-14T12:09:46;96359.09;;;11.07;100.00
28312;BME280;15572;48.810;9.148;2023-03-14T12:14:51;96375.66;;;10.93;100.00
28312;BME280;15572;48.810;9.148;2023-03-14T12:20:00;96369.91;;;10.62;100.00
28312;BME280;15572;48.810;9.148;2023-03-14T12:25:05;96391.81;;;10.37;100.00
28312;BME280;15572;48.810;9.148;2023-03-14T12:30:15;96442.41;;;10.88;95.01
28312;BME280;15572;48.810;9.148;2023-03-14T12:35:34;96445.44;;;11.03;86.53
28312;BME280;15572;48.810;9.148;2023-03-14T12:40:34;96464.59;;;10.62;84.00
28312;BME280;15572;48.810;9.148;2023-03-14T12:45:36;96501.75;;;10.78;73.64
28312;BME280;15572;48.810;9.148;2023-03-14T12:50:40;96496.03;;;10.63;70.34
28312;BME280;15572;48.810;9.148;2023-03-14T12:55:41;96492.38;;;11.09;63.92
28312;BME280;15572;48.810;9.148;2023-03-14T13:00:51;96549.88;;;10.76;59.28
28312;BME280;15572;48.810;9.148;2023-03-14T13:05:55;96558.81;;;10.76;58.17
28312;BME280;15572;48.810;9.148;2023-03-14T13:10:53;96588.47;;;10.36;61.10
28312;BME280;15572;48.810;9.148;2023-03-14T13:15:54;96605.41;;;10.43;61.79
28312;BME280;15572;48.810;9.148;2023-03-14T13:20:55;96616.78;;;9.92;58.13
28312;BME280;15572;48.810;9.148;2023-03-14T13:25:52;96630.16;;;10.17;55.72
28312;BME280;15572;48.810;9.148;2023-03-14T13:30:54;96650.34;;;10.44;53.38
28312;BME280;15572;48.810;9.148;2023-03-14T13:35:55;96640.53;;;10.32;53.28
28312;BME280;15572;48.810;9.148;2023-03-14T13:40:54;96689.53;;;9.94;53.62
28312;BME280;15572;48.810;9.148;2023-03-14T13:46:02;96725.59;;;9.88;55.01
28312;BME280;15572;48.810;9.148;2023-03-14T13:51:01;96706.44;;;9.89;55.31
28312;BME280;15572;48.810;9.148;2023-03-14T13:56:02;96736.25;;;9.83;52.00
28312;BME280;15572;48.810;9.148;2023-03-14T14:01:05;96756.84;;;9.65;49.43
28312;BME280;15572;48.810;9.148;2023-03-14T14:06:03;96786.88;;;9.33;48.88
28312;BME280;15572;48.810;9.148;2023-03-14T14:11:01;96788.69;;;9.39;48.28
28312;BME280;15572;48.810;9.148;2023-03-14T14:16:01;96830.03;;;9.14;47.11
28312;BME280;15572;48.810;9.148;2023-03-14T14:21:02;96820.78;;;9.28;47.31
28312;BME280;15572;48.810;9.148;2023-03-14T14:25:59;96837.00;;;9.28;47.66
28312;BME280;15572;48.810;9.148;2023-03-14T14:31:02;96864.53;;;9.12;48.78
28312;BME280;15572;48.810;9.148;2023-03-14T14:36:01;96847.94;;;9.09;49.41
28312;BME280;15572;48.810;9.148;2023-03-14T14:41:01;96858.84;;;8.96;49.17
28312;BME280;15572;48.810;9.148;2023-03-14T14:45:58;96891.28;;;8.82;48.72
28312;BME280;15572;48.810;9.148;2023-03-14T14:50:58;96889.84;;;8.86;49.68
28312;BME280;15572;48.810;9.148;2023-03-14T14:55:58;96904.09;;;8.94;49.82
28312;BME280;15572;48.810;9.148;2023-03-14T15:01:03;96910.66;;;9.04;49.72
28312;BME280;15572;48.810;9.148;2023-03-14T15:06:01;96901.38;;;9.25;49.18
28312;BME280;15572;48.810;9.148;2023-03-14T15:10:59;96904.75;;;9.20;48.58
28312;BME280;15572;48.810;9.148;2023-03-14T15:15:55;96905.66;;;9.64;47.85
28312;BME280;15572;48.810;9.148;2023-03-14T15:20:52;96918.16;;;9.58;48.90
28312;BME280;15572;48.810;9.148;2023-03-14T15:25:48;96918.47;;;9.50;48.89
28312;BME280;15572;48.810;9.148;2023-03-14T15:30:47;96957.09;;;9.19;49.21
28312;BME280;15572;48.810;9.148;2023-03-14T15:35:44;96919.56;;;9.11;49.87
28312;BME280;15572;48.810;9.148;2023-03-14T15:40:40;96908.25;;;9.27;50.03
28312;BME280;15572;48.810;9.148;2023-03-14T15:45:37;96952.44;;;9.33;50.10
28312;BME280;15572;48.810;9.148;2023-03-14T15:50:35;96954.00;;;9.47;50.51
28312;BME280;15572;48.810;9.148;2023-03-14T15:55:31;96959.63;;;9.95;49.00
28312;BME280;15572;48.810;9.148;2023-03-14T16:00:28;96948.53;;;10.03;48.93
28312;BME280;15572;48.810;9.148;2023-03-14T16:05:25;96976.66;;;9.46;49.74
28312;BME280;15572;48.810;9.148;2023-03-14T16:10:23;96969.03;;;9.05;50.97
28312;BME280;15572;48.810;9.148;2023-03-14T16:27:10;96988.13;;;8.59;54.50
28312;BME280;15572;48.810;9.148;2023-03-14T16:32:07;97006.97;;;8.66;54.76
28312;BME280;15572;48.810;9.148;2023-03-14T16:37:04;96997.84;;;8.67;54.75
28312;BME280;15572;48.810;9.148;2023-03-14T16:42:00;97015.69;;;8.61;55.50
28312;BME280;15572;48.810;9.148;2023-03-14T16:46:58;97016.34;;;8.63;54.65
28312;BME280;15572;48.810;9.148;2023-03-14T16:51:54;97025.91;;;8.53;55.23
28312;BME280;15572;48.810;9.148;2023-03-14T16:56:51;97043.72;;;8.60;55.52
28312;BME280;15572;48.810;9.148;2023-03-14T17:01:47;97062.22;;;8.50;56.15
28312;BME280;15572;48.810;9.148;2023-03-14T17:06:45;97061.81;;;8.60;56.72
28312;BME280;15572;48.810;9.148;2023-03-14T17:11:41;97080.09;;;8.38;57.77
28312;BME280;15572;48.810;9.148;2023-03-14T17:16:38;97105.97;;;7.86;70.34
28312;BME280;15572;48.810;9.148;2023-03-14T17:21:34;97122.03;;;7.53;76.98
28312;BME280;15572;48.810;9.148;2023-03-14T17:26:32;97139.56;;;7.23;80.87
28312;BME280;15572;48.810;9.148;2023-03-14T17:31:29;97147.59;;;7.10;83.48
28312;BME280;15572;48.810;9.148;2023-03-14T17:36:25;97140.91;;;7.06;86.00
28312;BME280;15572;48.810;9.148;2023-03-14T17:41:24;97143.75;;;6.91;86.54
28312;BME280;15572;48.810;9.148;2023-03-14T17:46:22;97151.53;;;6.80;88.93
28312;BME280;15572;48.810;9.148;2023-03-14T17:51:19;97162.91;;;6.75;90.15
28312;BME280;15572;48.810;9.148;2023-03-14T17:56:16;97192.06;;;6.71;91.03
28312;BME280;15572;48.810;9.148;2023-03-14T18:01:14;97197.31;;;6.58;92.27
28312;BME280;15572;48.810;9.148;2023-03-14T18:06:13;97216.72;;;6.54;93.56
28312;BME280;15572;48.810;9.148;2023-03-14T18:11:10;97249.06;;;6.60;93.17
28312;BME280;15572;48.810;9.148;2023-03-14T18:16:07;97209.19;;;6.43;97.56
28312;BME280;15572;48.810;9.148;2023-03-14T18:21:08;97219.63;;;6.10;99.83
28312;BME280;15572;48.810;9.148;2023-03-14T18:26:07;97223.97;;;5.89;100.00
28312;BME280;15572;48.810;9.148;2023-03-14T18:31:06;97231.88;;;5.91;100.00
28312;BME280;15572;48.810;9.148;2023-03-14T18:36:03;97224.09;;;5.81;100.00
28312;BME280;15572;48.810;9.148;2023-03-14T18:41:03;97235.00;;;5.80;97.91
28312;BME280;15572;48.810;9.148;2023-03-14T18:46:02;97233.59;;;5.84;93.58
28312;BME280;15572;48.810;9.148;2023-03-14T18:50:59;97257.06;;;5.90;90.94
28312;BME280;15572;48.810;9.148;2023-03-14T18:55:56;97263.97;;;5.84;89.33
28312;BME280;15572;48.810;9.148;2023-03-14T19:01:00;97268.63;;;5.90;88.52
28312;BME280;15572;48.810;9.148;2023-03-14T19:11:53;97293.34;;;5.86;86.90
28312;BME280;15572;48.810;9.148;2023-03-14T19:16:49;97287.81;;;5.87;86.24
28312;BME280;15572;48.810;9.148;2023-03-14T19:21:46;97302.06;;;5.88;86.11
28312;BME280;15572;48.810;9.148;2023-03-14T19:26:42;97308.75;;;5.92;86.88
28312;BME280;15572;48.810;9.148;2023-03-14T19:31:42;97321.03;;;5.86;86.91
28312;BME280;15572;48.810;9.148;2023-03-14T19:59:20;97349.00;;;5.77;85.45
28312;BME280;15572;48.810;9.148;2023-03-14T20:04:16;97350.88;;;5.77;85.61
28312;BME280;15572;48.810;9.148;2023-03-14T20:09:13;97360.59;;;5.78;85.96
28312;BME280;15572;48.810;9.148;2023-03-14T20:14:10;97368.47;;;5.79;85.97
28312;BME280;15572;48.810;9.148;2023-03-14T20:19:10;97360.59;;;5.78;86.36
28312;BME280;15572;48.810;9.148;2023-03-14T20:24:07;97367.47;;;5.80;86.14
28312;BME280;15572;48.810;9.148;2023-03-14T20:29:04;97367.06;;;5.83;85.21
28312;BME280;15572;48.810;9.148;2023-03-14T20:34:00;97378.47;;;5.85;85.26
28312;BME280;15572;48.810;9.148;2023-03-14T20:38:58;97375.91;;;5.92;83.90
28312;BME280;15572;48.810;9.148;2023-03-14T20:43:55;97383.00;;;6.00;83.71
28312;BME280;15572;48.810;9.148;2023-03-14T20:48:51;97385.16;;;5.89;84.21
28312;BME280;15572;48.810;9.148;2023-03-14T20:53:48;97395.72;;;5.91;84.94
28312;BME280;15572;48.810;9.148;2023-03-14T20:58:46;97390.44;;;5.98;84.60
28312;BME280;15572;48.810;9.148;2023-03-14T21:03:42;97396.84;;;5.97;84.78
28312;BME280;15572;48.810;9.148;2023-03-14T21:08:44;97398.25;;;5.93;85.37
28312;BME280;15572;48.810;9.148;2023-03-14T21:13:41;97404.50;;;6.00;84.90
28312;BME280;15572;48.810;9.148;2023-03-14T21:18:39;97409.41;;;6.11;84.88
28312;BME280;15572;48.810;9.148;2023-03-14T21:23:35;97408.47;;;6.04;85.59
28312;BME280;15572;48.810;9.148;2023-03-14T21:28:32;97408.44;;;5.97;87.84
28312;BME280;15572;48.810;9.148;2023-03-14T21:33:28;97408.22;;;5.99;89.11
28312;BME280;15572;48.810;9.148;2023-03-14T21:38:26;97412.13;;;5.96;90.31
28312;BME280;15572;48.810;9.148;2023-03-14T21:43:23;97423.22;;;5.93;94.73
28312;BME280;15572;48.810;9.148;2023-03-14T21:48:19;97442.72;;;5.58;100.00
28312;BME280;15572;48.810;9.148;2023-03-14T21:53:16;97434.81;;;5.27;100.00
28312;BME280;15572;48.810;9.148;2023-03-14T21:58:14;97442.44;;;4.92;100.00
28312;BME280;15572;48.810;9.148;2023-03-14T22:03:10;97426.84;;;4.73;100.00
28312;BME280;15572;48.810;9.148;2023-03-14T22:08:08;97431.94;;;4.60;100.00
28312;BME280;15572;48.810;9.148;2023-03-14T22:13:04;97426.25;;;4.63;100.00
28312;BME280;15572;48.810;9.148;2023-03-14T22:18:02;97439.28;;;4.66;100.00
28312;BME280;15572;48.810;9.148;2023-03-14T22:22:59;97455.13;;;4.76;100.00
28312;BME280;15572;48.810;9.148;2023-03-14T22:27:55;97519.22;;;3.85;100.00
28312;BME280;15572;48.810;9.148;2023-03-14T22:32:51;97529.41;;;3.00;100.00
28312;BME280;15572;48.810;9.148;2023-03-14T22:37:49;97552.75;;;2.66;100.00
28312;BME280;15572;48.810;9.148;2023-03-14T22:42:46;97558.13;;;2.32;100.00
28312;BME280;15572;48.810;9.148;2023-03-14T22:47:42;97572.97;;;2.00;100.00
28312;BME280;15572;48.810;9.148;2023-03-14T22:52:39;97575.28;;;1.95;100.00
28312;BME280;15572;48.810;9.148;2023-03-14T22:57:36;97614.53;;;1.77;100.00
28312;BME280;15572;48.810;9.148;2023-03-14T23:02:34;97623.09;;;1.63;100.00
28312;BME280;15572;48.810;9.148;2023-03-14T23:07:30;97636.06;;;1.58;100.00
28312;BME280;15572;48.810;9.148;2023-03-14T23:12:26;97635.00;;;1.51;100.00
28312;BME280;15572;48.810;9.148;2023-03-14T23:17:24;97662.50;;;1.51;100.00
28312;BME280;15572;48.810;9.148;2023-03-14T23:22:21;97675.84;;;1.51;100.00
28312;BME280;15572;48.810;9.148;2023-03-14T23:27:17;97673.41;;;1.40;100.00
28312;BME280;15572;48.810;9.148;2023-03-14T23:32:14;97693.25;;;1.38;100.00
28312;BME280;15572;48.810;9.148;2023-03-14T23:37:12;97699.78;;;1.43;100.00
28312;BME280;15572;48.810;9.148;2023-03-14T23:42:08;97695.91;;;1.55;100.00
28312;BME280;15572;48.810;9.148;2023-03-14T23:47:05;97707.19;;;1.49;100.00
28312;BME280;15572;48.810;9.148;2023-03-14T23:52:02;97712.06;;;1.54;100.00
28312;BME280;15572;48.810;9.148;2023-03-14T23:56:59;97723.03;;;1.51;100.00
